sensor_id;sensor_type;location;lat;lon;timestamp;P1;durP1;ratioP1;P2;durP2;ratioP2
12433;SDS011;6281;49.038;8.372;2022-08-21T00:00:29;4.63;;;2.37;;
12433;SDS011;6281;49.038;8.372;2022-08-21T00:02:57;5.90;;;2.30;;
12433;SDS011;6281;49.038;8.372;2022-08-21T00:05:26;4.50;;;2.17;;
12433;SDS011;6281;49.038;8.372;2022-08-21T00:07:56;6.60;;;2.20;;
12433;SDS011;6281;49.038;8.372;2022-08-21T00:10:23;4.30;;;2.20;;
12433;SDS011;6281;49.038;8.372;2022-08-21T00:12:50;3.93;;;2.20;;
12433;SDS011;6281;49.038;8.372;2022-08-21T00:15:19;4.33;;;2.10;;
12433;SDS011;6281;49.038;8.372;2022-08-21T00:17:50;3.83;;;1.90;;
12433;SDS011;6281;49.038;8.372;2022-08-21T00:20:18;4.27;;;2.10;;
12433;SDS011;6281;49.038;8.372;2022-08-21T00:22:45;6.40;;;2.40;;
12433;SDS011;6281;49.038;8.372;2022-08-21T00:25:14;7.70;;;2.70;;
12433;SDS011;6281;49.038;8.372;2022-08-21T00:27:42;4.67;;;2.00;;
12433;SDS011;6281;49.038;8.372;2022-08-21T00:30:12;5.33;;;2.20;;
12433;SDS011;6281;49.038;8.372;2022-08-21T00:32:41;3.73;;;1.93;;
12433;SDS011;6281;49.038;8.372;2022-08-21T00:35:10;4.87;;;2.53;;
12433;SDS011;6281;49.038;8.372;2022-08-21T00:37:38;3.53;;;2.07;;
12433;SDS011;6281;49.038;8.372;2022-08-21T00:40:07;7.97;;;2.40;;
12433;SDS011;6281;49.038;8.372;2022-08-21T00:42:37;7.87;;;2.30;;
12433;SDS011;6281;49.038;8.372;2022-08-21T00:45:05;3.70;;;2.07;;
12433;SDS011;6281;49.038;8.372;2022-08-21T00:47:33;4.80;;;2.50;;
12433;SDS011;6281;49.038;8.372;2022-08-21T00:50:00;3.87;;;2.10;;
12433;SDS011;6281;49.038;8.372;2022-08-21T00:52:29;5.73;;;2.37;;
12433;SDS011;6281;49.038;8.372;2022-08-21T00:55:00;3.97;;;2.37;;
12433;SDS011;6281;49.038;8.372;2022-08-21T00:57:28;2.87;;;2.10;;
12433;SDS011;6281;49.038;8.372;2022-08-21T01:00:03;4.07;;;1.97;;
12433;SDS011;6281;49.038;8.372;2022-08-21T01:02:33;4.50;;;2.10;;
12433;SDS011;6281;49.038;8.372;2022-08-21T01:05:00;4.07;;;2.23;;
12433;SDS011;6281;49.038;8.372;2022-08-21T01:07:27;4.90;;;2.20;;
12433;SDS011;6281;49.038;8.372;2022-08-21T01:09:55;5.27;;;2.43;;
12433;SDS011;6281;49.038;8.372;2022-08-21T01:12:22;5.67;;;2.70;;
12433;SDS011;6281;49.038;8.372;2022-08-21T01:14:49;4.37;;;2.33;;
12433;SDS011;6281;49.038;8.372;2022-08-21T01:17:18;3.53;;;1.90;;
12433;SDS011;6281;49.038;8.372;2022-08-21T01:19:46;4.57;;;2.10;;
12433;SDS011;6281;49.038;8.372;2022-08-21T01:22:15;4.77;;;2.17;;
12433;SDS011;6281;49.038;8.372;2022-08-21T01:24:42;3.87;;;2.40;;
12433;SDS011;6281;49.038;8.372;2022-08-21T01:27:09;3.70;;;2.33;;
12433;SDS011;6281;49.038;8.372;2022-08-21T01:29:38;5.10;;;2.60;;
12433;SDS011;6281;49.038;8.372;2022-08-21T01:32:08;8.57;;;2.67;;
12433;SDS011;6281;49.038;8.372;2022-08-21T01:34:38;3.10;;;2.00;;
12433;SDS011;6281;49.038;8.372;2022-08-21T01:37:07;3.70;;;2.70;;
12433;SDS011;6281;49.038;8.372;2022-08-21T01:39:37;3.00;;;2.23;;
12433;SDS011;6281;49.038;8.372;2022-08-21T01:42:05;5.53;;;2.33;;
12433;SDS011;6281;49.038;8.372;2022-08-21T01:44:32;3.67;;;2.33;;
12433;SDS011;6281;49.038;8.372;2022-08-21T01:47:01;4.67;;;2.23;;
12433;SDS011;6281;49.038;8.372;2022-08-21T01:49:30;4.37;;;2.50;;
12433;SDS011;6281;49.038;8.372;2022-08-21T01:51:58;2.60;;;2.20;;
12433;SDS011;6281;49.038;8.372;2022-08-21T01:54:25;5.27;;;2.60;;
12433;SDS011;6281;49.038;8.372;2022-08-21T01:56:53;4.77;;;2.67;;
12433;SDS011;6281;49.038;8.372;2022-08-21T01:59:21;4.33;;;2.40;;
12433;SDS011;6281;49.038;8.372;2022-08-21T02:01:49;6.57;;;2.47;;
12433;SDS011;6281;49.038;8.372;2022-08-21T02:04:17;4.70;;;2.43;;
12433;SDS011;6281;49.038;8.372;2022-08-21T02:06:44;5.10;;;2.83;;
12433;SDS011;6281;49.038;8.372;2022-08-21T02:09:11;6.63;;;2.53;;
12433;SDS011;6281;49.038;8.372;2022-08-21T02:11:40;4.97;;;2.63;;
12433;SDS011;6281;49.038;8.372;2022-08-21T02:14:09;3.87;;;2.10;;
12433;SDS011;6281;49.038;8.372;2022-08-21T02:16:38;6.03;;;2.50;;
12433;SDS011;6281;49.038;8.372;2022-08-21T02:19:06;5.03;;;2.33;;
12433;SDS011;6281;49.038;8.372;2022-08-21T02:21:33;4.03;;;2.57;;
12433;SDS011;6281;49.038;8.372;2022-08-21T02:24:00;5.97;;;2.80;;
12433;SDS011;6281;49.038;8.372;2022-08-21T02:26:27;7.10;;;2.73;;
12433;SDS011;6281;49.038;8.372;2022-08-21T02:28:54;4.23;;;2.50;;
12433;SDS011;6281;49.038;8.372;2022-08-21T02:31:23;4.00;;;2.70;;
12433;SDS011;6281;49.038;8.372;2022-08-21T02:33:51;4.87;;;2.70;;
12433;SDS011;6281;49.038;8.372;2022-08-21T02:36:18;5.67;;;2.57;;
12433;SDS011;6281;49.038;8.372;2022-08-21T02:38:45;6.17;;;2.53;;
12433;SDS011;6281;49.038;8.372;2022-08-21T02:41:13;4.70;;;2.77;;
12433;SDS011;6281;49.038;8.372;2022-08-21T02:43:42;5.00;;;2.47;;
12433;SDS011;6281;49.038;8.372;2022-08-21T02:46:10;2.87;;;2.50;;
12433;SDS011;6281;49.038;8.372;2022-08-21T02:48:40;4.67;;;2.70;;
12433;SDS011;6281;49.038;8.372;2022-08-21T02:51:07;5.03;;;2.40;;
12433;SDS011;6281;49.038;8.372;2022-08-21T02:53:36;3.47;;;2.50;;
12433;SDS011;6281;49.038;8.372;2022-08-21T02:56:08;4.73;;;2.73;;
12433;SDS011;6281;49.038;8.372;2022-08-21T02:58:38;5.23;;;2.67;;
12433;SDS011;6281;49.038;8.372;2022-08-21T03:01:08;7.10;;;2.50;;
12433;SDS011;6281;49.038;8.372;2022-08-21T03:03:36;3.80;;;2.50;;
12433;SDS011;6281;49.038;8.372;2022-08-21T03:06:06;4.87;;;2.90;;
12433;SDS011;6281;49.038;8.372;2022-08-21T03:08:33;6.43;;;3.00;;
12433;SDS011;6281;49.038;8.372;2022-08-21T03:11:01;6.83;;;2.77;;
12433;SDS011;6281;49.038;8.372;2022-08-21T03:13:28;5.63;;;2.40;;
12433;SDS011;6281;49.038;8.372;2022-08-21T03:15:57;6.73;;;3.07;;
12433;SDS011;6281;49.038;8.372;2022-08-21T03:18:24;3.73;;;2.67;;
12433;SDS011;6281;49.038;8.372;2022-08-21T03:20:51;5.27;;;2.60;;
12433;SDS011;6281;49.038;8.372;2022-08-21T03:23:19;4.77;;;2.20;;
12433;SDS011;6281;49.038;8.372;2022-08-21T03:25:46;4.83;;;2.73;;
12433;SDS011;6281;49.038;8.372;2022-08-21T03:28:17;7.83;;;2.60;;
12433;SDS011;6281;49.038;8.372;2022-08-21T03:30:46;3.33;;;2.30;;
12433;SDS011;6281;49.038;8.372;2022-08-21T03:33:14;6.10;;;2.63;;
12433;SDS011;6281;49.038;8.372;2022-08-21T03:35:42;5.70;;;2.67;;
12433;SDS011;6281;49.038;8.372;2022-08-21T03:38:10;3.57;;;2.87;;
12433;SDS011;6281;49.038;8.372;2022-08-21T03:40:40;7.53;;;2.63;;
12433;SDS011;6281;49.038;8.372;2022-08-21T03:43:07;3.60;;;2.17;;
12433;SDS011;6281;49.038;8.372;2022-08-21T03:45:35;7.07;;;2.93;;
12433;SDS011;6281;49.038;8.372;2022-08-21T03:48:03;6.40;;;2.80;;
12433;SDS011;6281;49.038;8.372;2022-08-21T03:50:33;4.43;;;2.67;;
12433;SDS011;6281;49.038;8.372;2022-08-21T03:53:02;5.33;;;2.67;;
12433;SDS011;6281;49.038;8.372;2022-08-21T03:55:29;8.13;;;3.00;;
12433;SDS011;6281;49.038;8.372;2022-08-21T03:57:58;6.00;;;2.80;;
12433;SDS011;6281;49.038;8.372;2022-08-21T04:00:25;4.00;;;2.70;;
12433;SDS011;6281;49.038;8.372;2022-08-21T04:02:52;3.57;;;2.70;;
12433;SDS011;6281;49.038;8.372;2022-08-21T04:05:19;4.37;;;2.20;;
12433;SDS011;6281;49.038;8.372;2022-08-21T04:07:53;4.53;;;3.10;;
12433;SDS011;6281;49.038;8.372;2022-08-21T04:10:22;6.93;;;2.70;;
12433;SDS011;6281;49.038;8.372;2022-08-21T04:12:50;5.17;;;2.47;;
12433;SDS011;6281;49.038;8.372;2022-08-21T04:15:19;4.43;;;2.50;;
12433;SDS011;6281;49.038;8.372;2022-08-21T04:17:47;3.23;;;2.50;;
12433;SDS011;6281;49.038;8.372;2022-08-21T04:20:14;7.63;;;3.20;;
12433;SDS011;6281;49.038;8.372;2022-08-21T04:22:42;6.00;;;2.40;;
12433;SDS011;6281;49.038;8.372;2022-08-21T04:25:09;4.40;;;2.50;;
12433;SDS011;6281;49.038;8.372;2022-08-21T04:27:36;3.00;;;2.30;;
12433;SDS011;6281;49.038;8.372;2022-08-21T04:30:05;4.63;;;2.90;;
12433;SDS011;6281;49.038;8.372;2022-08-21T04:32:35;6.73;;;2.70;;
12433;SDS011;6281;49.038;8.372;2022-08-21T04:35:03;5.57;;;2.77;;
12433;SDS011;6281;49.038;8.372;2022-08-21T04:37:33;4.67;;;2.70;;
12433;SDS011;6281;49.038;8.372;2022-08-21T04:40:00;5.13;;;2.90;;
12433;SDS011;6281;49.038;8.372;2022-08-21T04:42:27;6.80;;;3.13;;
12433;SDS011;6281;49.038;8.372;2022-08-21T04:44:54;7.13;;;3.10;;
12433;SDS011;6281;49.038;8.372;2022-08-21T04:47:22;7.63;;;3.07;;
12433;SDS011;6281;49.038;8.372;2022-08-21T04:49:51;5.47;;;3.10;;
12433;SDS011;6281;49.038;8.372;2022-08-21T04:52:19;6.27;;;2.50;;
12433;SDS011;6281;49.038;8.372;2022-08-21T04:54:49;5.43;;;2.60;;
12433;SDS011;6281;49.038;8.372;2022-08-21T04:57:17;6.70;;;3.20;;
12433;SDS011;6281;49.038;8.372;2022-08-21T04:59:45;5.93;;;2.87;;
12433;SDS011;6281;49.038;8.372;2022-08-21T05:02:16;7.90;;;3.33;;
12433;SDS011;6281;49.038;8.372;2022-08-21T05:04:45;4.03;;;2.47;;
12433;SDS011;6281;49.038;8.372;2022-08-21T05:07:16;7.60;;;3.43;;
12433;SDS011;6281;49.038;8.372;2022-08-21T05:09:46;4.40;;;2.33;;
12433;SDS011;6281;49.038;8.372;2022-08-21T05:12:13;6.80;;;3.20;;
12433;SDS011;6281;49.038;8.372;2022-08-21T05:14:41;4.30;;;3.00;;
12433;SDS011;6281;49.038;8.372;2022-08-21T05:17:08;5.63;;;3.37;;
12433;SDS011;6281;49.038;8.372;2022-08-21T05:19:36;6.27;;;2.63;;
12433;SDS011;6281;49.038;8.372;2022-08-21T05:22:02;4.13;;;3.10;;
12433;SDS011;6281;49.038;8.372;2022-08-21T05:24:31;5.30;;;3.03;;
12433;SDS011;6281;49.038;8.372;2022-08-21T05:26:58;4.37;;;2.70;;
12433;SDS011;6281;49.038;8.372;2022-08-21T05:29:25;4.57;;;2.93;;
12433;SDS011;6281;49.038;8.372;2022-08-21T05:31:55;5.00;;;2.80;;
12433;SDS011;6281;49.038;8.372;2022-08-21T05:34:22;6.07;;;2.87;;
12433;SDS011;6281;49.038;8.372;2022-08-21T05:36:50;4.87;;;2.90;;
12433;SDS011;6281;49.038;8.372;2022-08-21T05:39:17;6.67;;;2.83;;
12433;SDS011;6281;49.038;8.372;2022-08-21T05:41:45;4.07;;;2.70;;
12433;SDS011;6281;49.038;8.372;2022-08-21T05:44:12;6.47;;;3.50;;
12433;SDS011;6281;49.038;8.372;2022-08-21T05:46:39;6.17;;;3.27;;
12433;SDS011;6281;49.038;8.372;2022-08-21T05:49:06;5.93;;;2.93;;
12433;SDS011;6281;49.038;8.372;2022-08-21T05:51:34;6.27;;;3.10;;
12433;SDS011;6281;49.038;8.372;2022-08-21T05:54:01;3.90;;;2.67;;
12433;SDS011;6281;49.038;8.372;2022-08-21T05:56:28;6.10;;;2.90;;
12433;SDS011;6281;49.038;8.372;2022-08-21T05:58:56;4.73;;;2.70;;
12433;SDS011;6281;49.038;8.372;2022-08-21T06:01:23;5.63;;;2.90;;
12433;SDS011;6281;49.038;8.372;2022-08-21T06:03:50;9.20;;;3.20;;
12433;SDS011;6281;49.038;8.372;2022-08-21T06:06:17;6.07;;;2.53;;
12433;SDS011;6281;49.038;8.372;2022-08-21T06:08:44;5.70;;;3.10;;
12433;SDS011;6281;49.038;8.372;2022-08-21T06:11:11;4.53;;;2.83;;
12433;SDS011;6281;49.038;8.372;2022-08-21T06:13:38;6.40;;;3.50;;
12433;SDS011;6281;49.038;8.372;2022-08-21T06:16:08;6.00;;;2.67;;
12433;SDS011;6281;49.038;8.372;2022-08-21T06:18:37;6.57;;;2.83;;
12433;SDS011;6281;49.038;8.372;2022-08-21T06:21:05;4.87;;;3.07;;
12433;SDS011;6281;49.038;8.372;2022-08-21T06:23:33;8.67;;;2.73;;
12433;SDS011;6281;49.038;8.372;2022-08-21T06:26:01;5.50;;;3.37;;
12433;SDS011;6281;49.038;8.372;2022-08-21T06:28:29;5.97;;;2.80;;
12433;SDS011;6281;49.038;8.372;2022-08-21T06:30:56;4.83;;;3.03;;
12433;SDS011;6281;49.038;8.372;2022-08-21T06:33:25;3.53;;;2.20;;
12433;SDS011;6281;49.038;8.372;2022-08-21T06:35:52;8.20;;;3.23;;
12433;SDS011;6281;49.038;8.372;2022-08-21T06:38:19;6.43;;;3.30;;
12433;SDS011;6281;49.038;8.372;2022-08-21T06:40:46;5.20;;;3.10;;
12433;SDS011;6281;49.038;8.372;2022-08-21T06:43:14;4.07;;;2.80;;
12433;SDS011;6281;49.038;8.372;2022-08-21T06:45:42;6.03;;;2.60;;
12433;SDS011;6281;49.038;8.372;2022-08-21T06:48:10;6.23;;;2.73;;
12433;SDS011;6281;49.038;8.372;2022-08-21T06:50:38;5.50;;;2.70;;
12433;SDS011;6281;49.038;8.372;2022-08-21T06:53:05;5.80;;;2.77;;
12433;SDS011;6281;49.038;8.372;2022-08-21T06:55:35;5.37;;;2.97;;
12433;SDS011;6281;49.038;8.372;2022-08-21T06:58:03;4.13;;;2.70;;
12433;SDS011;6281;49.038;8.372;2022-08-21T07:00:30;3.43;;;2.30;;
12433;SDS011;6281;49.038;8.372;2022-08-21T07:02:58;6.63;;;3.00;;
12433;SDS011;6281;49.038;8.372;2022-08-21T07:05:25;5.77;;;2.80;;
12433;SDS011;6281;49.038;8.372;2022-08-21T07:07:54;6.77;;;2.80;;
12433;SDS011;6281;49.038;8.372;2022-08-21T07:10:21;6.97;;;3.00;;
12433;SDS011;6281;49.038;8.372;2022-08-21T07:12:49;5.60;;;3.30;;
12433;SDS011;6281;49.038;8.372;2022-08-21T07:15:17;4.17;;;2.90;;
12433;SDS011;6281;49.038;8.372;2022-08-21T07:17:44;4.80;;;2.90;;
12433;SDS011;6281;49.038;8.372;2022-08-21T07:20:11;7.60;;;3.03;;
12433;SDS011;6281;49.038;8.372;2022-08-21T07:22:38;4.80;;;2.53;;
12433;SDS011;6281;49.038;8.372;2022-08-21T07:25:08;6.47;;;2.50;;
12433;SDS011;6281;49.038;8.372;2022-08-21T07:27:35;3.70;;;2.70;;
12433;SDS011;6281;49.038;8.372;2022-08-21T07:30:02;8.63;;;2.87;;
12433;SDS011;6281;49.038;8.372;2022-08-21T07:32:29;4.17;;;2.37;;
12433;SDS011;6281;49.038;8.372;2022-08-21T07:34:56;5.43;;;2.63;;
12433;SDS011;6281;49.038;8.372;2022-08-21T07:37:23;6.40;;;3.23;;
12433;SDS011;6281;49.038;8.372;2022-08-21T07:39:50;5.30;;;2.63;;
12433;SDS011;6281;49.038;8.372;2022-08-21T07:42:19;3.60;;;2.53;;
12433;SDS011;6281;49.038;8.372;2022-08-21T07:44:46;8.07;;;2.70;;
12433;SDS011;6281;49.038;8.372;2022-08-21T07:47:13;4.33;;;2.73;;
12433;SDS011;6281;49.038;8.372;2022-08-21T07:49:40;7.57;;;2.63;;
12433;SDS011;6281;49.038;8.372;2022-08-21T07:52:07;4.67;;;2.30;;
12433;SDS011;6281;49.038;8.372;2022-08-21T07:54:34;5.63;;;2.77;;
12433;SDS011;6281;49.038;8.372;2022-08-21T07:57:01;6.20;;;3.03;;
12433;SDS011;6281;49.038;8.372;2022-08-21T07:59:29;4.70;;;2.70;;
12433;SDS011;6281;49.038;8.372;2022-08-21T08:01:56;6.27;;;2.93;;
12433;SDS011;6281;49.038;8.372;2022-08-21T08:04:23;6.23;;;3.13;;
12433;SDS011;6281;49.038;8.372;2022-08-21T08:06:50;4.80;;;2.60;;
12433;SDS011;6281;49.038;8.372;2022-08-21T08:09:17;5.30;;;2.57;;
12433;SDS011;6281;49.038;8.372;2022-08-21T08:11:44;5.90;;;2.83;;
12433;SDS011;6281;49.038;8.372;2022-08-21T08:14:11;5.73;;;2.73;;
12433;SDS011;6281;49.038;8.372;2022-08-21T08:16:40;8.07;;;2.70;;
12433;SDS011;6281;49.038;8.372;2022-08-21T08:19:07;6.33;;;2.60;;
12433;SDS011;6281;49.038;8.372;2022-08-21T08:21:34;7.70;;;2.83;;
12433;SDS011;6281;49.038;8.372;2022-08-21T08:24:02;5.30;;;2.43;;
12433;SDS011;6281;49.038;8.372;2022-08-21T08:26:29;8.77;;;2.93;;
12433;SDS011;6281;49.038;8.372;2022-08-21T08:28:56;6.40;;;3.00;;
12433;SDS011;6281;49.038;8.372;2022-08-21T08:31:23;8.73;;;3.23;;
12433;SDS011;6281;49.038;8.372;2022-08-21T08:33:52;5.57;;;2.80;;
12433;SDS011;6281;49.038;8.372;2022-08-21T08:36:18;6.13;;;2.83;;
12433;SDS011;6281;49.038;8.372;2022-08-21T08:38:46;4.77;;;2.80;;
12433;SDS011;6281;49.038;8.372;2022-08-21T08:41:14;9.47;;;2.73;;
12433;SDS011;6281;49.038;8.372;2022-08-21T08:43:44;7.03;;;3.10;;
12433;SDS011;6281;49.038;8.372;2022-08-21T08:46:33;8.00;;;2.90;;
12433;SDS011;6281;49.038;8.372;2022-08-21T08:49:08;9.37;;;3.00;;
12433;SDS011;6281;49.038;8.372;2022-08-21T08:51:42;4.57;;;2.67;;
12433;SDS011;6281;49.038;8.372;2022-08-21T08:54:13;5.27;;;2.73;;
12433;SDS011;6281;49.038;8.372;2022-08-21T08:56:45;5.40;;;3.27;;
12433;SDS011;6281;49.038;8.372;2022-08-21T08:59:13;7.10;;;3.50;;
12433;SDS011;6281;49.038;8.372;2022-08-21T09:01:43;7.10;;;3.60;;
12433;SDS011;6281;49.038;8.372;2022-08-21T09:04:11;4.13;;;2.80;;
12433;SDS011;6281;49.038;8.372;2022-08-21T09:06:43;5.63;;;3.13;;
12433;SDS011;6281;49.038;8.372;2022-08-21T09:09:25;7.60;;;3.43;;
12433;SDS011;6281;49.038;8.372;2022-08-21T09:12:02;5.43;;;3.03;;
12433;SDS011;6281;49.038;8.372;2022-08-21T09:14:42;6.47;;;2.60;;
12433;SDS011;6281;49.038;8.372;2022-08-21T09:17:22;4.00;;;3.00;;
12433;SDS011;6281;49.038;8.372;2022-08-21T09:20:02;5.13;;;3.13;;
12433;SDS011;6281;49.038;8.372;2022-08-21T09:22:39;7.90;;;3.10;;
12433;SDS011;6281;49.038;8.372;2022-08-21T09:25:15;6.40;;;2.70;;
12433;SDS011;6281;49.038;8.372;2022-08-21T09:27:46;4.50;;;3.03;;
12433;SDS011;6281;49.038;8.372;2022-08-21T09:30:13;6.07;;;3.00;;
12433;SDS011;6281;49.038;8.372;2022-08-21T09:32:41;4.37;;;2.80;;
12433;SDS011;6281;49.038;8.372;2022-08-21T09:35:10;5.17;;;2.70;;
12433;SDS011;6281;49.038;8.372;2022-08-21T09:37:46;4.67;;;2.60;;
12433;SDS011;6281;49.038;8.372;2022-08-21T09:43:05;5.77;;;3.07;;
12433;SDS011;6281;49.038;8.372;2022-08-21T09:45:46;5.60;;;2.80;;
12433;SDS011;6281;49.038;8.372;2022-08-21T09:48:17;5.45;;;2.67;;
12433;SDS011;6281;49.038;8.372;2022-08-21T09:50:48;6.03;;;2.95;;
12433;SDS011;6281;49.038;8.372;2022-08-21T09:53:17;6.03;;;3.22;;
12433;SDS011;6281;49.038;8.372;2022-08-21T09:55:48;7.05;;;3.20;;
12433;SDS011;6281;49.038;8.372;2022-08-21T09:58:35;5.07;;;2.88;;
12433;SDS011;6281;49.038;8.372;2022-08-21T10:01:04;5.00;;;3.00;;
12433;SDS011;6281;49.038;8.372;2022-08-21T10:03:32;8.35;;;3.50;;
12433;SDS011;6281;49.038;8.372;2022-08-21T10:06:07;4.20;;;2.80;;
12433;SDS011;6281;49.038;8.372;2022-08-21T10:08:36;4.32;;;3.08;;
12433;SDS011;6281;49.038;8.372;2022-08-21T10:11:05;5.72;;;2.70;;
12433;SDS011;6281;49.038;8.372;2022-08-21T10:13:39;7.93;;;3.15;;
12433;SDS011;6281;49.038;8.372;2022-08-21T10:16:17;4.68;;;2.80;;
12433;SDS011;6281;49.038;8.372;2022-08-21T10:18:56;11.60;;;3.00;;
12433;SDS011;6281;49.038;8.372;2022-08-21T10:21:36;4.70;;;2.70;;
12433;SDS011;6281;49.038;8.372;2022-08-21T10:24:09;5.15;;;2.83;;
12433;SDS011;6281;49.038;8.372;2022-08-21T10:26:44;7.18;;;3.30;;
12433;SDS011;6281;49.038;8.372;2022-08-21T10:29:22;7.35;;;2.92;;
12433;SDS011;6281;49.038;8.372;2022-08-21T10:32:06;7.63;;;2.80;;
12433;SDS011;6281;49.038;8.372;2022-08-21T10:34:42;6.00;;;2.80;;
12433;SDS011;6281;49.038;8.372;2022-08-21T10:37:31;5.97;;;3.10;;
12433;SDS011;6281;49.038;8.372;2022-08-21T10:40:08;6.45;;;2.80;;
12433;SDS011;6281;49.038;8.372;2022-08-21T10:42:47;7.18;;;2.83;;
12433;SDS011;6281;49.038;8.372;2022-08-21T10:45:26;7.95;;;3.35;;
12433;SDS011;6281;49.038;8.372;2022-08-21T10:48:12;3.65;;;2.58;;
12433;SDS011;6281;49.038;8.372;2022-08-21T10:50:50;4.97;;;2.75;;
12433;SDS011;6281;49.038;8.372;2022-08-21T10:53:28;5.90;;;2.30;;
12433;SDS011;6281;49.038;8.372;2022-08-21T10:56:13;6.63;;;2.60;;
12433;SDS011;6281;49.038;8.372;2022-08-21T10:58:45;6.18;;;3.03;;
12433;SDS011;6281;49.038;8.372;2022-08-21T11:01:23;7.57;;;2.85;;
12433;SDS011;6281;49.038;8.372;2022-08-21T11:03:59;3.35;;;1.90;;
12433;SDS011;6281;49.038;8.372;2022-08-21T11:06:36;3.13;;;1.75;;
12433;SDS011;6281;49.038;8.372;2022-08-21T11:09:11;3.50;;;2.00;;
12433;SDS011;6281;49.038;8.372;2022-08-21T11:11:41;4.78;;;2.03;;
12433;SDS011;6281;49.038;8.372;2022-08-21T11:14:13;3.20;;;1.73;;
12433;SDS011;6281;49.038;8.372;2022-08-21T11:16:53;3.28;;;1.80;;
12433;SDS011;6281;49.038;8.372;2022-08-21T11:19:28;2.88;;;1.73;;
12433;SDS011;6281;49.038;8.372;2022-08-21T11:21:59;4.25;;;2.20;;
12433;SDS011;6281;49.038;8.372;2022-08-21T11:24:32;2.90;;;1.80;;
12433;SDS011;6281;49.038;8.372;2022-08-21T11:27:06;6.38;;;2.05;;
12433;SDS011;6281;49.038;8.372;2022-08-21T11:29:46;5.00;;;1.98;;
12433;SDS011;6281;49.038;8.372;2022-08-21T11:32:25;3.78;;;1.95;;
12433;SDS011;6281;49.038;8.372;2022-08-21T11:35:13;9.13;;;2.05;;
12433;SDS011;6281;49.038;8.372;2022-08-21T11:37:49;5.68;;;2.70;;
12433;SDS011;6281;49.038;8.372;2022-08-21T11:40:31;3.42;;;1.90;;
12433;SDS011;6281;49.038;8.372;2022-08-21T11:43:08;3.70;;;1.83;;
12433;SDS011;6281;49.038;8.372;2022-08-21T11:45:43;2.40;;;1.83;;
12433;SDS011;6281;49.038;8.372;2022-08-21T11:48:14;3.65;;;2.15;;
12433;SDS011;6281;49.038;8.372;2022-08-21T11:50:51;2.90;;;2.10;;
12433;SDS011;6281;49.038;8.372;2022-08-21T11:53:21;3.35;;;1.83;;
12433;SDS011;6281;49.038;8.372;2022-08-21T11:56:05;3.17;;;2.22;;
12433;SDS011;6281;49.038;8.372;2022-08-21T11:58:37;4.53;;;2.20;;
12433;SDS011;6281;49.038;8.372;2022-08-21T12:01:08;3.75;;;2.17;;
12433;SDS011;6281;49.038;8.372;2022-08-21T12:03:40;4.18;;;2.15;;
12433;SDS011;6281;49.038;8.372;2022-08-21T12:06:26;6.60;;;2.17;;
12433;SDS011;6281;49.038;8.372;2022-08-21T12:08:57;4.07;;;2.25;;
12433;SDS011;6281;49.038;8.372;2022-08-21T12:11:27;4.93;;;2.22;;
12433;SDS011;6281;49.038;8.372;2022-08-21T12:13:57;3.72;;;2.15;;
12433;SDS011;6281;49.038;8.372;2022-08-21T12:16:29;4.07;;;2.40;;
12433;SDS011;6281;49.038;8.372;2022-08-21T12:19:07;2.22;;;1.92;;
12433;SDS011;6281;49.038;8.372;2022-08-21T12:21:47;3.05;;;2.05;;
12433;SDS011;6281;49.038;8.372;2022-08-21T12:24:16;3.00;;;2.22;;
12433;SDS011;6281;49.038;8.372;2022-08-21T12:26:49;3.92;;;2.08;;
12433;SDS011;6281;49.038;8.372;2022-08-21T12:29:21;4.38;;;2.30;;
12433;SDS011;6281;49.038;8.372;2022-08-21T12:31:55;4.05;;;1.92;;
12433;SDS011;6281;49.038;8.372;2022-08-21T12:34:27;5.35;;;2.13;;
12433;SDS011;6281;49.038;8.372;2022-08-21T12:37:00;4.38;;;2.05;;
12433;SDS011;6281;49.038;8.372;2022-08-21T12:39:31;4.40;;;2.13;;
12433;SDS011;6281;49.038;8.372;2022-08-21T12:42:03;3.53;;;2.08;;
12433;SDS011;6281;49.038;8.372;2022-08-21T12:44:39;4.32;;;2.05;;
12433;SDS011;6281;49.038;8.372;2022-08-21T12:47:14;3.50;;;2.17;;
12433;SDS011;6281;49.038;8.372;2022-08-21T12:49:48;4.50;;;2.22;;
12433;SDS011;6281;49.038;8.372;2022-08-21T12:52:20;5.60;;;2.30;;
12433;SDS011;6281;49.038;8.372;2022-08-21T12:54:50;3.55;;;2.15;;
12433;SDS011;6281;49.038;8.372;2022-08-21T12:57:19;3.88;;;2.33;;
12433;SDS011;6281;49.038;8.372;2022-08-21T12:59:51;3.50;;;2.22;;
12433;SDS011;6281;49.038;8.372;2022-08-21T13:02:20;3.47;;;2.25;;
12433;SDS011;6281;49.038;8.372;2022-08-21T13:04:49;5.20;;;2.30;;
12433;SDS011;6281;49.038;8.372;2022-08-21T13:07:22;4.78;;;3.03;;
12433;SDS011;6281;49.038;8.372;2022-08-21T13:09:55;4.22;;;2.80;;
12433;SDS011;6281;49.038;8.372;2022-08-21T13:12:26;5.05;;;2.80;;
12433;SDS011;6281;49.038;8.372;2022-08-21T13:14:55;3.50;;;2.80;;
12433;SDS011;6281;49.038;8.372;2022-08-21T13:17:24;4.03;;;2.83;;
12433;SDS011;6281;49.038;8.372;2022-08-21T13:19:55;3.97;;;2.70;;
12433;SDS011;6281;49.038;8.372;2022-08-21T13:22:24;3.65;;;3.00;;
12433;SDS011;6281;49.038;8.372;2022-08-21T13:24:52;3.58;;;2.65;;
12433;SDS011;6281;49.038;8.372;2022-08-21T13:27:20;2.85;;;2.38;;
12433;SDS011;6281;49.038;8.372;2022-08-21T13:30:02;5.00;;;2.85;;
12433;SDS011;6281;49.038;8.372;2022-08-21T13:32:33;5.28;;;2.47;;
12433;SDS011;6281;49.038;8.372;2022-08-21T13:35:07;6.07;;;2.83;;
12433;SDS011;6281;49.038;8.372;2022-08-21T13:37:40;5.70;;;3.08;;
12433;SDS011;6281;49.038;8.372;2022-08-21T13:40:12;3.53;;;2.78;;
12433;SDS011;6281;49.038;8.372;2022-08-21T13:42:42;4.13;;;2.42;;
12433;SDS011;6281;49.038;8.372;2022-08-21T13:45:17;6.75;;;2.78;;
12433;SDS011;6281;49.038;8.372;2022-08-21T13:47:49;4.32;;;2.60;;
12433;SDS011;6281;49.038;8.372;2022-08-21T13:50:17;4.35;;;2.85;;
12433;SDS011;6281;49.038;8.372;2022-08-21T13:52:48;4.25;;;2.60;;
12433;SDS011;6281;49.038;8.372;2022-08-21T13:55:24;3.15;;;2.33;;
12433;SDS011;6281;49.038;8.372;2022-08-21T13:58:01;3.25;;;2.08;;
12433;SDS011;6281;49.038;8.372;2022-08-21T14:00:31;3.95;;;2.30;;
12433;SDS011;6281;49.038;8.372;2022-08-21T14:03:02;3.80;;;2.20;;
12433;SDS011;6281;49.038;8.372;2022-08-21T14:05:37;2.85;;;2.20;;
12433;SDS011;6281;49.038;8.372;2022-08-21T14:08:11;3.20;;;2.20;;
12433;SDS011;6281;49.038;8.372;2022-08-21T14:10:41;3.90;;;2.47;;
12433;SDS011;6281;49.038;8.372;2022-08-21T14:13:20;10.20;;;2.83;;
12433;SDS011;6281;49.038;8.372;2022-08-21T14:15:56;4.68;;;2.42;;
12433;SDS011;6281;49.038;8.372;2022-08-21T14:18:24;11.85;;;3.00;;
12433;SDS011;6281;49.038;8.372;2022-08-21T14:20:51;4.30;;;2.83;;
12433;SDS011;6281;49.038;8.372;2022-08-21T14:23:29;3.17;;;2.17;;
12433;SDS011;6281;49.038;8.372;2022-08-21T14:25:58;4.65;;;2.70;;
12433;SDS011;6281;49.038;8.372;2022-08-21T14:28:27;4.07;;;2.42;;
12433;SDS011;6281;49.038;8.372;2022-08-21T14:30:58;6.85;;;2.63;;
12433;SDS011;6281;49.038;8.372;2022-08-21T14:33:37;5.55;;;2.95;;
12433;SDS011;6281;49.038;8.372;2022-08-21T14:36:04;3.95;;;2.67;;
12433;SDS011;6281;49.038;8.372;2022-08-21T14:38:31;4.35;;;2.53;;
12433;SDS011;6281;49.038;8.372;2022-08-21T14:41:03;4.57;;;2.30;;
12433;SDS011;6281;49.038;8.372;2022-08-21T14:43:34;4.55;;;2.40;;
12433;SDS011;6281;49.038;8.372;2022-08-21T14:46:03;4.07;;;2.65;;
12433;SDS011;6281;49.038;8.372;2022-08-21T14:48:30;5.55;;;2.85;;
12433;SDS011;6281;49.038;8.372;2022-08-21T14:50:57;5.88;;;2.70;;
12433;SDS011;6281;49.038;8.372;2022-08-21T14:53:24;3.03;;;2.47;;
12433;SDS011;6281;49.038;8.372;2022-08-21T14:55:51;3.88;;;2.28;;
12433;SDS011;6281;49.038;8.372;2022-08-21T14:58:33;4.05;;;2.30;;
12433;SDS011;6281;49.038;8.372;2022-08-21T15:01:08;4.38;;;2.30;;
12433;SDS011;6281;49.038;8.372;2022-08-21T15:03:36;5.53;;;2.20;;
12433;SDS011;6281;49.038;8.372;2022-08-21T15:06:04;3.50;;;2.08;;
12433;SDS011;6281;49.038;8.372;2022-08-21T15:08:33;4.63;;;2.60;;
12433;SDS011;6281;49.038;8.372;2022-08-21T15:11:00;4.70;;;2.63;;
12433;SDS011;6281;49.038;8.372;2022-08-21T15:13:28;3.03;;;2.50;;
12433;SDS011;6281;49.038;8.372;2022-08-21T15:15:56;3.42;;;1.98;;
12433;SDS011;6281;49.038;8.372;2022-08-21T15:18:26;3.08;;;2.08;;
12433;SDS011;6281;49.038;8.372;2022-08-21T15:20:54;2.42;;;2.00;;